Time;durP1;ratioP1;P1;durP2;ratioP2;P2;SDS_P1;SDS_P2;PMS_P1;PMS_P2;Temp;Humidity;BMP_temperature;BMP_pressure;BME280_temperature;BME280_humidity;BME280_pressure;Samples;Min_cycle;Max_cycle;Signal;HPM_P1;HPM_P2
2023/09/02 00:00:39;;;;;;;1.70;1.60;;;;;;;17.68;85.68;100606.89;84015;258;136132;-74
2023/09/02 00:02:40;;;;;;;1.40;1.30;;;;;;;17.64;86.06;100611.98;84021;282;25140;-71
2023/09/02 00:04:43;;;;;;;1.90;1.40;;;;;;;17.66;86.12;100610.67;84093;281;136387;-73
2023/09/02 00:06:45;;;;;;;1.30;1.20;;;;;;;17.63;85.75;100607.04;84166;278;23651;-69
2023/09/02 00:08:48;;;;;;;1.70;1.60;;;;;;;17.59;85.72;100603.30;84035;282;137552;-73
2023/09/02 00:10:49;;;;;;;1.60;1.50;;;;;;;17.57;86.11;100601.91;84255;281;22569;-71
2023/09/02 00:12:51;;;;;;;1.50;1.40;;;;;;;17.61;85.83;100600.95;84425;282;137107;-70
2023/09/02 00:14:53;;;;;;;1.00;1.00;;;;;;;17.64;85.16;100601.40;84133;281;22593;-69
2023/09/02 00:16:54;;;;;;;1.70;1.30;;;;;;;17.60;85.07;100602.59;84163;281;137075;-71
2023/09/02 00:18:56;;;;;;;2.70;1.20;;;;;;;17.58;84.80;100600.00;84073;281;23666;-74
2023/09/02 00:20:58;;;;;;;1.90;1.80;;;;;;;17.47;85.37;100601.96;84059;281;137217;-74
2023/09/02 00:23:00;;;;;;;1.30;1.30;;;;;;;17.36;86.55;100603.60;84273;281;23731;-72
2023/09/02 00:25:02;;;;;;;1.20;1.20;;;;;;;17.30;87.19;100604.79;84261;282;136463;-73
2023/09/02 00:27:05;;;;;;;1.60;1.40;;;;;;;17.25;87.76;100609.80;84742;282;24942;-72
2023/09/02 00:29:07;;;;;;;1.60;1.50;;;;;;;17.18;88.75;100610.86;84189;282;136224;-72
2023/09/02 00:31:08;;;;;;;2.80;2.10;;;;;;;17.19;89.20;100612.23;84383;282;22544;-72
2023/09/02 00:33:11;;;;;;;1.80;1.70;;;;;;;17.24;89.17;100616.33;84219;281;137083;-71
2023/09/02 00:35:12;;;;;;;1.90;1.30;;;;;;;17.27;89.10;100613.70;84330;282;24223;-71
2023/09/02 00:37:15;;;;;;;1.20;1.10;;;;;;;17.29;88.72;100613.34;84244;281;137262;-71
2023/09/02 00:39:17;;;;;;;1.40;1.30;;;;;;;17.26;88.75;100613.94;84181;282;25358;-74
2023/09/02 00:41:32;;;;;;;1.10;1.00;;;;;;;17.21;88.95;100611.58;84302;281;137107;-73
2023/09/02 00:43:34;;;;;;;1.60;1.30;;;;;;;17.18;89.36;100614.30;84307;281;22373;-71
2023/09/02 00:45:37;;;;;;;1.10;1.10;;;;;;;17.19;89.49;100615.20;84241;282;136760;-74
2023/09/02 00:47:40;;;;;;;3.20;1.00;;;;;;;17.19;89.62;100617.33;84447;281;22545;-72
2023/09/02 00:49:42;;;;;;;1.60;1.30;;;;;;;17.19;89.88;100617.83;84337;281;136821;-73
2023/09/02 00:51:44;;;;;;;1.80;1.70;;;;;;;17.17;90.12;100617.55;84339;283;25247;-74
2023/09/02 00:53:46;;;;;;;1.60;1.30;;;;;;;17.20;90.51;100618.39;84193;282;136751;-73
2023/09/02 00:55:48;;;;;;;1.60;1.50;;;;;;;17.26;90.36;100620.39;84413;270;22576;-71
2023/09/02 00:57:53;;;;;;;1.60;1.50;;;;;;;17.29;90.03;100620.98;84289;281;137103;-73
2023/09/02 01:01:20;;;;;;;1.70;1.50;;;;;;;17.16;90.69;100627.23;82924;305;545932;-72
2023/09/02 01:03:22;;;;;;;1.70;1.40;;;;;;;17.17;90.45;100627.74;83731;296;26295;-71
2023/09/02 01:05:24;;;;;;;1.60;1.50;;;;;;;17.15;90.67;100627.86;84034;287;136815;-71
2023/09/02 01:07:26;;;;;;;1.40;1.30;;;;;;;17.12;90.71;100628.05;84043;288;24246;-69
2023/09/02 01:09:31;;;;;;;3.00;1.60;;;;;;;17.13;91.09;100629.70;83997;288;136981;-73
2023/09/02 01:11:33;;;;;;;1.10;1.00;;;;;;;17.22;90.75;100628.15;84147;288;22663;-71
2023/09/02 01:13:35;;;;;;;1.60;1.50;;;;;;;17.23;90.82;100625.80;84026;288;136070;-73
2023/09/02 01:15:37;;;;;;;1.30;1.30;;;;;;;17.17;91.09;100621.98;83762;286;648068;-74
2023/09/02 01:17:39;;;;;;;5.20;1.40;;;;;;;17.14;91.51;100620.98;84043;285;136449;-71
2023/09/02 01:19:43;;;;;;;1.50;1.40;;;;;;;17.15;91.84;100623.87;84109;285;23197;-73
2023/09/02 01:22:07;;;;;;;1.60;1.60;;;;;;;17.17;91.93;100626.16;84137;285;137794;-72
2023/09/02 01:24:27;;;;;;;1.50;1.40;;;;;;;17.10;91.98;100623.38;84164;286;137122;-73
2023/09/02 01:27:06;;;;;;;1.30;1.20;;;;;;;17.06;92.28;100625.50;84134;286;22563;-72
2023/09/02 01:29:12;;;;;;;2.40;1.30;;;;;;;17.03;92.47;100625.78;84184;286;136475;-73
2023/09/02 01:31:16;;;;;;;1.70;1.60;;;;;;;16.99;92.57;100628.23;84154;286;24104;-75
2023/09/02 01:33:20;;;;;;;1.90;1.80;;;;;;;16.94;92.93;100630.03;84061;285;137196;-72
2023/09/02 01:35:27;;;;;;;1.30;1.30;;;;;;;16.98;92.60;100630.02;84257;285;22563;-75
2023/09/02 01:37:38;;;;;;;3.80;1.50;;;;;;;16.99;92.65;100626.83;84216;285;136758;-70
2023/09/02 01:39:42;;;;;;;2.30;1.70;;;;;;;16.99;92.82;100626.86;84402;287;22291;-72
2023/09/02 01:41:46;;;;;;;1.30;1.20;;;;;;;16.94;92.85;100623.40;84027;286;137774;-73
2023/09/02 01:43:49;;;;;;;1.40;1.30;;;;;;;16.96;92.50;100626.73;84169;286;25285;-73
2023/09/02 01:45:51;;;;;;;2.40;1.40;;;;;;;16.97;92.43;100625.43;83936;286;136740;-74
2023/09/02 01:47:54;;;;;;;2.10;2.00;;;;;;;16.89;92.87;100623.91;84615;283;22565;-72
2023/09/02 01:49:57;;;;;;;3.90;1.90;;;;;;;16.78;93.28;100620.64;84915;285;137393;-71
2023/09/02 01:51:59;;;;;;;1.50;1.20;;;;;;;16.72;93.76;100627.23;84416;285;22509;-74
2023/09/02 01:54:01;;;;;;;3.70;0.90;;;;;;;16.70;94.22;100630.02;84905;285;136687;-71
2023/09/02 01:56:03;;;;;;;1.50;1.40;;;;;;;16.67;94.57;100629.72;84752;286;137227;-70
2023/09/02 01:58:05;;;;;;;2.70;1.50;;;;;;;16.62;94.90;100631.80;84674;285;25382;-72
2023/09/02 02:00:08;;;;;;;1.70;1.60;;;;;;;16.58;95.50;100630.67;84436;287;137708;-72
2023/09/02 02:02:16;;;;;;;6.80;2.00;;;;;;;16.60;95.61;100632.56;84318;285;25244;-71
2023/09/02 02:04:25;;;;;;;1.70;1.60;;;;;;;16.61;95.38;100630.06;84043;285;136951;-74
2023/09/02 02:06:29;;;;;;;1.90;1.80;;;;;;;16.59;95.44;100629.17;84227;287;25223;-73
2023/09/02 02:08:48;;;;;;;1.30;1.30;;;;;;;16.62;95.13;100631.92;84242;285;136615;-74
2023/09/02 02:10:53;;;;;;;1.70;1.60;;;;;;;16.62;94.89;100632.33;84089;285;22599;-72
2023/09/02 02:13:01;;;;;;;1.40;1.30;;;;;;;16.57;95.44;100634.41;84291;286;137953;-73
2023/09/02 02:15:04;;;;;;;3.70;1.20;;;;;;;16.57;95.54;100637.73;84321;285;22420;-72
2023/09/02 02:17:07;;;;;;;1.50;1.40;;;;;;;16.52;95.47;100636.73;84155;285;136989;-71
2023/09/02 02:19:11;;;;;;;2.20;2.00;;;;;;;16.44;95.74;100639.36;84086;287;24134;-76
2023/09/02 02:21:13;;;;;;;2.20;1.90;;;;;;;16.35;96.20;100639.73;84014;287;136200;-74
2023/09/02 02:23:15;;;;;;;2.30;1.70;;;;;;;16.27;96.70;100640.66;84154;285;22550;-73
2023/09/02 02:25:17;;;;;;;4.60;1.90;;;;;;;16.19;97.05;100644.39;84036;282;138451;-73
2023/09/02 02:27:20;;;;;;;2.10;2.00;;;;;;;16.27;96.95;100642.27;84184;285;25237;-74
2023/09/02 02:29:22;;;;;;;2.30;2.10;;;;;;;16.24;97.48;100648.30;84269;285;136647;-75
2023/09/02 02:31:24;;;;;;;2.10;2.00;;;;;;;16.11;98.21;100649.00;84227;286;22551;-74
2023/09/02 02:33:27;;;;;;;2.20;2.00;;;;;;;16.07;99.10;100648.65;84113;285;136381;-72
2023/09/02 02:35:32;;;;;;;1.90;1.70;;;;;;;16.10;99.17;100651.33;84257;284;22648;-74
2023/09/02 02:37:35;;;;;;;6.00;2.50;;;;;;;16.18;99.00;100647.59;83963;284;138121;-75
2023/09/02 02:39:37;;;;;;;2.70;1.90;;;;;;;16.20;98.80;100652.00;84191;284;22644;-71
2023/09/02 02:41:39;;;;;;;1.80;1.70;;;;;;;16.15;98.38;100652.36;83951;285;136629;-73
2023/09/02 02:43:40;;;;;;;3.10;2.80;;;;;;;16.11;98.11;100652.96;84133;285;22989;-77
2023/09/02 02:45:42;;;;;;;2.40;2.30;;;;;;;16.07;98.18;100653.54;84079;285;136666;-75
2023/09/02 02:47:45;;;;;;;2.00;1.90;;;;;;;16.05;98.47;100654.65;84125;285;22752;-75
2023/09/02 02:49:47;;;;;;;2.40;2.20;;;;;;;16.07;99.26;100656.95;84025;282;136731;-74
2023/09/02 02:51:49;;;;;;;2.70;2.60;;;;;;;16.07;99.09;100658.33;84118;286;22751;-74
2023/09/02 02:53:51;;;;;;;2.60;2.40;;;;;;;16.04;98.86;100660.27;83955;286;136641;-76
2023/09/02 02:55:55;;;;;;;2.50;2.40;;;;;;;15.98;99.24;100665.64;84191;286;22223;-73
2023/09/02 02:57:56;;;;;;;2.20;2.10;;;;;;;15.92;99.86;100672.52;83983;285;136719;-73
2023/09/02 02:59:58;;;;;;;2.80;2.00;;;;;;;15.88;100.00;100672.45;84013;286;25188;-73
2023/09/02 03:02:00;;;;;;;5.90;2.30;;;;;;;15.94;100.00;100672.02;85938;286;136559;-75
2023/09/02 03:04:03;;;;;;;2.60;2.00;;;;;;;15.92;100.00;100672.64;84097;285;138804;-69
2023/09/02 03:06:06;;;;;;;2.70;2.50;;;;;;;15.93;100.00;100672.48;84181;285;24146;-72
2023/09/02 03:08:10;;;;;;;2.40;1.80;;;;;;;15.97;99.97;100671.96;84140;285;136861;-75
2023/09/02 03:10:11;;;;;;;3.10;2.90;;;;;;;15.96;99.89;100669.77;84132;285;25293;-73
2023/09/02 03:12:14;;;;;;;3.20;2.70;;;;;;;15.93;99.52;100670.52;84137;285;137862;-76
2023/09/02 03:14:16;;;;;;;2.00;1.80;;;;;;;15.92;99.50;100669.42;84058;286;22673;-78
2023/09/02 03:16:18;;;;;;;4.00;2.40;;;;;;;15.91;99.98;100670.51;84120;285;137041;-72
2023/09/02 03:18:21;;;;;;;5.50;2.50;;;;;;;15.88;99.95;100668.88;84120;285;22525;-74
2023/09/02 03:20:24;;;;;;;3.00;2.30;;;;;;;15.89;100.00;100669.98;84242;286;137987;-75
2023/09/02 03:22:26;;;;;;;4.90;2.40;;;;;;;15.90;100.00;100671.45;84096;288;22556;-72
2023/09/02 03:24:28;;;;;;;2.30;2.20;;;;;;;15.93;100.00;100671.70;83994;286;136635;-74
2023/09/02 03:26:31;;;;;;;2.90;2.70;;;;;;;15.89;100.00;100668.73;84187;286;22552;-70
2023/09/02 03:28:32;;;;;;;3.20;2.30;;;;;;;15.92;100.00;100669.96;84057;286;136991;-70
2023/09/02 03:30:34;;;;;;;2.40;2.20;;;;;;;15.99;100.00;100671.54;84147;282;22551;-75
2023/09/02 03:32:36;;;;;;;2.70;2.10;;;;;;;16.02;99.99;100663.58;84067;286;136966;-74
2023/09/02 03:34:39;;;;;;;2.80;2.60;;;;;;;16.05;99.87;100665.63;84154;286;23137;-76
2023/09/02 03:36:43;;;;;;;3.80;2.60;;;;;;;16.07;99.91;100667.85;84056;274;138403;-75
2023/09/02 03:38:45;;;;;;;4.60;2.50;;;;;;;16.15;99.52;100670.20;84146;284;22667;-77
2023/09/02 03:40:47;;;;;;;3.80;2.80;;;;;;;16.22;99.17;100673.02;84000;287;137493;-75
2023/09/02 03:42:49;;;;;;;3.50;2.60;;;;;;;16.25;99.21;100674.84;84174;286;24142;-74
2023/09/02 03:44:51;;;;;;;4.00;3.30;;;;;;;16.35;99.00;100673.45;84038;286;136042;-75
2023/09/02 03:46:53;;;;;;;3.70;2.90;;;;;;;16.46;99.38;100672.21;84102;286;25440;-73
2023/09/02 03:48:55;;;;;;;5.50;3.20;;;;;;;16.62;98.15;100675.55;84095;286;136886;-74
2023/09/02 03:51:05;;;;;;;5.30;3.30;;;;;;;16.80;97.46;100674.21;84223;287;23376;-76
2023/09/02 03:53:09;;;;;;;2.90;2.60;;;;;;;17.09;96.88;100673.58;84022;285;136829;-75
2023/09/02 03:55:12;;;;;;;5.60;2.50;;;;;;;17.48;94.84;100679.55;84321;284;22623;-73
2023/09/02 03:57:14;;;;;;;2.70;2.50;;;;;;;17.94;92.81;100683.86;84109;287;136194;-74
2023/09/02 03:59:16;;;;;;;8.30;2.60;;;;;;;18.36;90.64;100690.69;83889;286;22550;-72
2023/09/02 04:01:18;;;;;;;3.50;2.70;;;;;;;18.77;88.58;100691.86;83850;286;136256;-70
2023/09/02 04:03:21;;;;;;;2.40;2.20;;;;;;;19.03;86.66;100682.73;84257;286;24104;-73
2023/09/02 04:05:23;;;;;;;2.70;2.30;;;;;;;19.32;84.97;100684.94;83896;287;136928;-72
2023/09/02 04:07:25;;;;;;;4.80;2.40;;;;;;;19.72;83.57;100695.91;84065;286;22569;-75
2023/09/02 04:09:28;;;;;;;2.50;2.10;;;;;;;20.14;81.15;100696.04;84025;285;136056;-74
2023/09/02 04:11:30;;;;;;;2.60;2.10;;;;;;;20.58;78.57;100689.81;84056;285;24264;-75
2023/09/02 04:13:32;;;;;;;4.00;2.70;;;;;;;21.03;75.84;100692.08;83923;285;136657;-76
2023/09/02 04:15:40;;;;;;;5.20;2.10;;;;;;;21.37;73.63;100689.77;84010;285;22565;-75
2023/09/02 04:17:44;;;;;;;2.70;2.50;;;;;;;21.51;71.81;100688.45;83977;285;136128;-74
2023/09/02 04:19:46;;;;;;;3.30;2.60;;;;;;;21.41;71.31;100695.63;84110;284;23708;-77
2023/09/02 04:21:49;;;;;;;4.70;2.30;;;;;;;21.24;71.58;100699.24;84050;284;136583;-75
2023/09/02 04:23:51;;;;;;;2.00;1.80;;;;;;;21.03;72.64;100703.66;84151;287;22553;-76
2023/09/02 04:25:54;;;;;;;1.80;1.80;;;;;;;20.87;73.45;100704.20;83969;287;137248;-75
2023/09/02 04:27:57;;;;;;;1.80;1.70;;;;;;;20.86;74.30;100706.06;84153;285;22571;-73
2023/09/02 04:29:58;;;;;;;2.40;1.60;;;;;;;21.06;74.07;100707.45;83919;287;135684;-77
2023/09/02 04:32:03;;;;;;;2.60;1.80;;;;;;;21.37;72.54;100703.70;83946;286;136939;-74
2023/09/02 04:34:06;;;;;;;1.40;1.40;;;;;;;21.62;68.91;100702.04;83895;285;25162;-74
2023/09/02 04:36:08;;;;;;;1.40;1.30;;;;;;;21.88;66.34;100702.77;86499;286;136200;-75
2023/09/02 04:38:14;;;;;;;3.30;1.20;;;;;;;22.17;65.10;100704.70;86662;286;22342;-74
2023/09/02 04:40:20;;;;;;;1.50;1.40;;;;;;;22.43;62.46;100707.68;86517;286;136669;-74
2023/09/02 04:42:21;;;;;;;1.70;1.60;;;;;;;22.60;61.15;100709.73;86535;286;22427;-75
2023/09/02 04:44:23;;;;;;;1.10;1.10;;;;;;;22.58;60.35;100699.88;86472;285;136720;-74
2023/09/02 04:46:25;;;;;;;1.20;1.20;;;;;;;22.66;59.87;100707.66;86672;285;22303;-72
2023/09/02 04:48:28;;;;;;;2.50;1.30;;;;;;;22.66;59.23;100708.46;86586;287;135759;-74
2023/09/02 04:50:31;;;;;;;1.40;1.30;;;;;;;22.63;58.65;100710.13;86705;285;22381;-74
2023/09/02 04:52:32;;;;;;;0.80;0.80;;;;;;;22.58;58.72;100716.23;86601;285;136611;-76
2023/09/02 04:54:34;;;;;;;2.30;1.40;;;;;;;22.50;58.71;100716.97;86677;286;22356;-75
2023/09/02 04:56:37;;;;;;;1.30;1.20;;;;;;;22.43;59.23;100720.50;86588;285;136730;-74
2023/09/02 04:58:39;;;;;;;2.30;1.20;;;;;;;22.44;59.24;100723.77;86709;286;22984;-77
2023/09/02 05:00:43;;;;;;;1.80;1.20;;;;;;;22.50;58.76;100722.14;86568;285;137456;-72
2023/09/02 05:02:46;;;;;;;2.20;1.60;;;;;;;22.66;59.74;100726.89;86641;287;22196;-76
2023/09/02 05:04:48;;;;;;;1.20;1.20;;;;;;;22.95;58.56;100724.49;86570;287;136850;-75
2023/09/02 05:06:50;;;;;;;1.30;1.20;;;;;;;23.29;57.30;100712.81;86694;285;22389;-76
2023/09/02 05:08:56;;;;;;;1.50;1.20;;;;;;;23.80;55.53;100720.73;86477;286;137360;-76
2023/09/02 05:11:03;;;;;;;1.10;1.10;;;;;;;24.23;53.49;100721.70;85978;286;22554;-72
2023/09/02 05:13:05;;;;;;;1.80;0.80;;;;;;;24.51;51.60;100716.79;83744;286;136537;-72
2023/09/02 05:15:08;;;;;;;0.80;0.80;;;;;;;24.75;50.52;100718.64;86582;286;22542;-72
2023/09/02 05:17:11;;;;;;;1.50;1.30;;;;;;;24.97;49.56;100718.23;85291;285;137321;-72
2023/09/02 05:19:13;;;;;;;1.40;1.30;;;;;;;25.07;49.68;100718.17;83948;285;25007;-72
2023/09/02 05:21:15;;;;;;;1.40;1.40;;;;;;;25.06;49.16;100722.26;83672;287;136436;-70
2023/09/02 05:23:17;;;;;;;1.10;1.00;;;;;;;25.19;48.40;100722.56;83915;286;22549;-71
2023/09/02 05:25:20;;;;;;;1.70;1.20;;;;;;;25.35;48.13;100722.96;84184;286;136581;-74
2023/09/02 05:27:23;;;;;;;2.80;1.20;;;;;;;25.60;47.31;100716.38;83994;285;22556;-73
2023/09/02 05:29:25;;;;;;;1.40;1.10;;;;;;;25.89;46.55;100717.13;84064;283;137768;-75
2023/09/02 05:31:27;;;;;;;2.20;1.50;;;;;;;26.11;45.73;100717.51;84120;275;24059;-74
2023/09/02 05:33:28;;;;;;;1.50;1.10;;;;;;;26.36;45.72;100718.04;83924;286;136691;-74
2023/09/02 05:35:31;;;;;;;3.90;1.40;;;;;;;26.72;44.07;100718.24;84495;285;25269;-74
2023/09/02 05:37:33;;;;;;;2.80;0.80;;;;;;;27.06;42.68;100719.17;84256;285;138032;-73
2023/09/02 05:39:34;;;;;;;1.60;1.10;;;;;;;27.29;41.48;100716.94;84271;285;23594;-74
2023/09/02 05:41:39;;;;;;;1.10;0.80;;;;;;;27.34;41.48;100721.69;84420;255;135551;-73
2023/09/02 05:43:40;;;;;;;1.40;0.80;;;;;;;27.31;41.31;100719.77;84482;285;24149;-75
2023/09/02 05:45:42;;;;;;;5.80;1.30;;;;;;;27.13;41.05;100711.83;84294;285;136404;-74
2023/09/02 05:47:44;;;;;;;1.40;0.40;;;;;;;27.06;41.37;100716.66;84193;285;25159;-74
2023/09/02 05:49:46;;;;;;;1.50;0.60;;;;;;;27.14;40.76;100715.97;84103;285;136216;-72
2023/09/02 05:51:47;;;;;;;0.90;0.90;;;;;;;27.28;40.17;100713.33;83795;285;22794;-72
2023/09/02 05:53:49;;;;;;;3.60;1.10;;;;;;;27.30;40.02;100712.38;83786;286;136319;-70
2023/09/02 05:55:55;;;;;;;5.20;0.90;;;;;;;27.29;40.03;100713.11;83976;286;25227;-73
2023/09/02 05:57:57;;;;;;;1.60;1.10;;;;;;;27.32;40.15;100710.93;83892;286;136179;-69
2023/09/02 05:59:58;;;;;;;1.00;0.80;;;;;;;27.45;40.33;100711.66;84007;285;22573;-72
2023/09/02 06:02:00;;;;;;;1.10;1.00;;;;;;;27.62;40.08;100705.92;83857;286;137213;-72
2023/09/02 06:04:02;;;;;;;0.90;0.60;;;;;;;27.83;39.66;100707.56;83961;285;25132;-74
2023/09/02 06:06:13;;;;;;;3.60;1.40;;;;;;;28.08;38.72;100706.50;83989;286;23025;-74
2023/09/02 06:08:15;;;;;;;0.80;0.80;;;;;;;28.32;37.90;100704.21;83853;284;136729;-75
2023/09/02 06:10:17;;;;;;;2.50;1.00;;;;;;;28.54;37.50;100707.27;85159;285;22546;-72
2023/09/02 06:12:21;;;;;;;0.80;0.60;;;;;;;28.74;36.93;100709.57;83892;285;137692;-72
2023/09/02 06:14:23;;;;;;;2.10;0.50;;;;;;;28.90;35.91;100712.45;84002;285;25255;-73
2023/09/02 06:16:25;;;;;;;1.40;0.50;;;;;;;28.96;35.39;100716.59;83838;285;136462;-72
2023/09/02 06:18:27;;;;;;;0.80;0.50;;;;;;;28.78;35.52;100707.36;83746;288;23216;-71
2023/09/02 06:20:29;;;;;;;0.80;0.50;;;;;;;28.52;35.85;100717.23;84308;286;136802;-72
2023/09/02 06:22:31;;;;;;;0.30;0.30;;;;;;;28.11;36.55;100718.80;83892;286;22568;-74
2023/09/02 06:24:33;;;;;;;0.50;0.30;;;;;;;27.57;37.43;100717.04;83864;286;136530;-71
2023/09/02 06:26:35;;;;;;;0.70;0.30;;;;;;;27.05;38.20;100716.78;83933;286;25156;-72
2023/09/02 06:28:38;;;;;;;0.70;0.40;;;;;;;26.64;38.30;100720.13;83913;286;136115;-72
2023/09/02 06:30:40;;;;;;;0.40;0.30;;;;;;;26.40;38.83;100721.50;84125;287;24147;-71
2023/09/02 06:32:41;;;;;;;0.30;0.20;;;;;;;26.39;38.92;100724.23;83913;285;136696;-72
2023/09/02 06:34:43;;;;;;;1.50;0.30;;;;;;;26.46;38.79;100723.05;84357;287;22553;-72
2023/09/02 06:36:45;;;;;;;2.90;0.70;;;;;;;26.59;38.69;100720.92;84261;285;137208;-72
2023/09/02 06:38:47;;;;;;;1.40;0.50;;;;;;;26.71;38.17;100722.03;83845;287;22577;-72
2023/09/02 06:40:49;;;;;;;1.30;0.30;;;;;;;26.79;38.24;100726.17;83853;285;137451;-71
2023/09/02 06:42:51;;;;;;;1.40;0.60;;;;;;;26.85;38.29;100725.96;84091;285;22574;-72
2023/09/02 06:44:54;;;;;;;1.30;0.70;;;;;;;26.94;38.11;100727.63;84003;285;136489;-73
2023/09/02 06:46:55;;;;;;;1.30;1.00;;;;;;;27.03;38.02;100725.45;84442;286;24923;-71
2023/09/02 06:48:59;;;;;;;1.60;0.40;;;;;;;27.07;37.25;100729.08;83803;286;136361;-72
2023/09/02 06:51:01;;;;;;;1.90;1.10;;;;;;;26.84;36.91;100724.32;83973;286;23051;-74
2023/09/02 06:53:03;;;;;;;1.30;0.40;;;;;;;26.56;37.36;100725.86;84341;286;137035;-73
2023/09/02 06:55:05;;;;;;;0.50;0.40;;;;;;;26.40;37.73;100727.17;84449;286;22593;-72
2023/09/02 06:57:07;;;;;;;1.90;0.60;;;;;;;26.31;37.90;100728.89;84449;286;136209;-74
2023/09/02 06:59:09;;;;;;;1.00;0.60;;;;;;;26.23;38.39;100729.27;83855;287;22655;-72
2023/09/02 07:01:18;;;;;;;0.90;0.60;;;;;;;26.05;38.41;100728.14;83733;286;136323;-72
2023/09/02 07:03:20;;;;;;;4.10;1.20;;;;;;;25.83;38.83;100732.27;85578;286;22552;-72
2023/09/02 07:05:22;;;;;;;2.90;0.40;;;;;;;25.64;39.27;100731.81;83913;274;136426;-73
2023/09/02 07:07:24;;;;;;;1.80;0.90;;;;;;;25.40;39.34;100739.17;84041;285;22549;-71
2023/09/02 07:09:26;;;;;;;1.00;0.30;;;;;;;25.16;39.76;100740.23;84024;285;136483;-72
2023/09/02 07:11:28;;;;;;;3.70;0.90;;;;;;;24.89;39.64;100734.33;84023;286;25249;-72
2023/09/02 07:13:30;;;;;;;2.70;0.30;;;;;;;24.73;40.29;100739.20;83990;285;137347;-73
2023/09/02 07:15:34;;;;;;;1.40;0.30;;;;;;;24.60;40.73;100742.35;84102;284;25291;-72
2023/09/02 07:17:36;;;;;;;0.50;0.30;;;;;;;24.56;39.89;100743.61;84021;285;137265;-74
2023/09/02 07:19:38;;;;;;;0.60;0.50;;;;;;;24.55;39.71;100743.23;83893;285;22686;-72
2023/09/02 07:21:40;;;;;;;0.70;0.30;;;;;;;24.54;39.64;100740.34;84234;285;136232;-69
2023/09/02 07:23:41;;;;;;;1.00;0.50;;;;;;;24.44;39.89;100742.88;83837;285;22552;-72
2023/09/02 07:25:43;;;;;;;1.00;0.20;;;;;;;24.29;39.97;100741.80;83889;285;136259;-70
2023/09/02 07:27:46;;;;;;;0.80;0.40;;;;;;;24.19;40.29;100739.06;84045;285;25183;-73
2023/09/02 07:29:48;;;;;;;2.50;0.40;;;;;;;24.18;40.74;100742.29;84324;285;136069;-70
2023/09/02 07:31:55;;;;;;;0.90;0.60;;;;;;;24.19;40.81;100742.11;83943;285;24169;-68
2023/09/02 07:34:00;;;;;;;1.50;0.50;;;;;;;24.21;40.57;100740.83;84080;285;137034;-71
2023/09/02 07:36:12;;;;;;;1.40;0.40;;;;;;;24.25;40.54;100739.90;83987;285;24028;-73
2023/09/02 07:38:14;;;;;;;5.80;0.70;;;;;;;24.27;40.61;100742.15;84071;284;22577;-71
2023/09/02 07:40:18;;;;;;;1.00;0.80;;;;;;;24.22;40.83;100742.41;84162;285;136403;-72
2023/09/02 07:42:25;;;;;;;0.80;0.30;;;;;;;24.17;40.91;100743.96;84154;286;22568;-72
2023/09/02 07:44:28;;;;;;;1.80;0.40;;;;;;;24.18;41.07;100745.71;84454;285;136149;-72
2023/09/02 07:46:29;;;;;;;0.60;0.50;;;;;;;24.21;41.02;100747.24;84145;284;22582;-71
2023/09/02 07:48:31;;;;;;;1.50;0.50;;;;;;;24.24;40.95;100744.15;83937;284;136420;-71
2023/09/02 07:50:33;;;;;;;0.50;0.30;;;;;;;24.27;41.22;100742.25;83999;285;25350;-71
2023/09/02 07:52:35;;;;;;;1.60;0.90;;;;;;;24.28;41.07;100742.30;84261;285;138246;-71
2023/09/02 07:54:36;;;;;;;2.00;0.90;;;;;;;24.16;40.92;100733.78;84031;285;24207;-70
2023/09/02 07:56:38;;;;;;;1.50;0.90;;;;;;;24.12;41.38;100741.95;84006;285;137607;-70
2023/09/02 07:58:42;;;;;;;0.70;0.70;;;;;;;24.10;41.28;100742.11;83869;286;22638;-71
2023/09/02 08:00:44;;;;;;;0.90;0.60;;;;;;;24.08;40.98;100743.41;84192;284;136426;-72
2023/09/02 08:02:46;;;;;;;1.90;0.20;;;;;;;24.00;40.83;100739.58;83991;286;22546;-71
2023/09/02 08:04:48;;;;;;;2.80;1.00;;;;;;;23.89;41.49;100737.15;84003;285;136606;-70
2023/09/02 08:06:50;;;;;;;1.00;0.60;;;;;;;23.86;42.02;100737.68;84243;285;25135;-71
2023/09/02 08:08:53;;;;;;;0.80;0.80;;;;;;;23.83;41.93;100746.00;83874;286;136686;-71
2023/09/02 08:11:06;;;;;;;1.10;0.90;;;;;;;23.80;41.50;100740.55;84465;286;22551;-69
2023/09/02 08:13:09;;;;;;;1.80;0.90;;;;;;;23.75;41.98;100738.86;83986;285;136531;-72
2023/09/02 08:15:11;;;;;;;0.90;0.90;;;;;;;23.72;42.79;100739.34;84028;285;24365;-72
2023/09/02 08:17:14;;;;;;;1.70;1.10;;;;;;;23.70;43.10;100742.06;84179;286;137039;-72
2023/09/02 08:19:16;;;;;;;1.50;1.10;;;;;;;23.75;42.51;100745.84;84470;285;25271;-71
2023/09/02 08:21:17;;;;;;;4.30;1.00;;;;;;;23.80;42.80;100744.08;83922;286;138275;-72
2023/09/02 08:23:19;;;;;;;1.20;0.90;;;;;;;23.89;42.66;100744.50;84118;285;22942;-74
2023/09/02 08:25:21;;;;;;;2.60;1.00;;;;;;;23.94;42.32;100746.20;84001;285;136831;-74
2023/09/02 08:27:26;;;;;;;1.70;1.00;;;;;;;23.93;41.91;100744.95;84079;285;22592;-72
2023/09/02 08:29:28;;;;;;;;;;;;;;;23.89;42.21;100739.59;84129;283;136826;-72
2023/09/02 08:31:29;;;;;;;0.90;0.80;;;;;;;23.87;41.78;100744.88;84247;283;25288;-72
2023/09/02 08:33:31;;;;;;;2.70;1.00;;;;;;;23.83;41.42;100749.16;84131;283;136483;-73
2023/09/02 08:35:35;;;;;;;1.60;1.20;;;;;;;23.81;41.45;100747.52;84240;283;24132;-71
2023/09/02 08:37:38;;;;;;;2.50;0.80;;;;;;;23.84;41.24;100749.38;84134;283;136131;-71
2023/09/02 08:39:39;;;;;;;1.30;1.00;;;;;;;23.90;41.08;100750.38;84130;283;24204;-73
2023/09/02 08:41:44;;;;;;;2.60;1.60;;;;;;;23.96;41.03;100748.81;84059;283;135780;-71
2023/09/02 08:43:51;;;;;;;1.40;1.20;;;;;;;24.03;41.28;100744.86;84330;284;24097;-71
2023/09/02 08:45:57;;;;;;;1.60;1.50;;;;;;;24.17;41.42;100748.44;84126;283;136497;-71
2023/09/02 08:48:05;;;;;;;5.20;1.70;;;;;;;24.31;41.18;100746.94;84159;283;24117;-72
2023/09/02 08:50:08;;;;;;;4.90;1.90;;;;;;;24.44;40.50;100745.20;84098;282;22571;-71
2023/09/02 08:52:12;;;;;;;2.00;1.80;;;;;;;24.52;40.31;100748.29;84159;282;136803;-70
2023/09/02 08:54:15;;;;;;;1.10;1.00;;;;;;;24.58;40.00;100746.72;84170;283;22816;-70
2023/09/02 08:56:18;;;;;;;1.60;0.90;;;;;;;24.58;39.89;100742.74;84453;283;138202;-71
2023/09/02 08:58:20;;;;;;;5.40;0.90;;;;;;;24.56;39.87;100747.80;84081;280;22566;-73
2023/09/02 09:00:22;;;;;;;1.60;1.30;;;;;;;24.48;39.92;100749.02;84147;284;136732;-72
2023/09/02 09:02:25;;;;;;;2.10;1.00;;;;;;;24.45;40.36;100752.84;84261;276;25290;-72
2023/09/02 09:04:34;;;;;;;1.30;0.60;;;;;;;24.46;40.00;100748.16;84160;283;136365;-71
2023/09/02 09:06:38;;;;;;;3.20;1.20;;;;;;;24.44;39.93;100751.52;84467;283;22578;-72
2023/09/02 09:08:41;;;;;;;1.20;0.80;;;;;;;24.42;39.59;100752.14;84378;283;137077;-72
2023/09/02 09:10:43;;;;;;;1.70;0.60;;;;;;;24.29;39.33;100749.70;84274;283;25222;-72
2023/09/02 09:12:48;;;;;;;4.00;1.20;;;;;;;24.12;39.50;100750.92;84022;283;136676;-73
2023/09/02 09:14:53;;;;;;;1.30;1.00;;;;;;;23.96;39.95;100751.37;85604;283;554583;-71
2023/09/02 09:16:56;;;;;;;1.40;0.60;;;;;;;23.89;40.02;100752.55;84094;284;137562;-74
2023/09/02 09:19:00;;;;;;;1.10;0.70;;;;;;;23.93;40.21;100751.31;84239;283;24105;-72
2023/09/02 09:21:02;;;;;;;1.70;1.00;;;;;;;24.05;40.24;100749.00;84034;283;137773;-72
2023/09/02 09:23:08;;;;;;;6.90;1.60;;;;;;;24.17;40.20;100750.35;84260;283;22553;-72
2023/09/02 09:25:11;;;;;;;4.20;1.10;;;;;;;24.23;39.90;100739.14;84047;283;136454;-72
2023/09/02 09:27:13;;;;;;;1.00;0.90;;;;;;;24.40;39.91;100749.84;84169;283;25191;-72
2023/09/02 09:29:17;;;;;;;1.90;0.70;;;;;;;24.43;39.55;100750.81;84133;282;136374;-72
2023/09/02 09:31:20;;;;;;;0.40;0.40;;;;;;;24.48;39.32;100748.87;84438;282;23262;-73
2023/09/02 09:33:22;;;;;;;1.30;0.50;;;;;;;24.49;39.20;100744.50;84433;282;136098;-72
2023/09/02 09:35:24;;;;;;;2.60;0.40;;;;;;;24.47;39.06;100744.40;84497;283;22554;-73
2023/09/02 09:37:26;;;;;;;0.70;0.40;;;;;;;24.37;39.24;100737.62;84319;284;137627;-75